createdAt,value
2023-02-06T00:01:46.168Z,7.13
2023-02-06T00:04:14.430Z,6.78
2023-02-06T00:06:42.322Z,6.68
2023-02-06T00:09:10.477Z,6.60
2023-02-06T00:11:37.695Z,7.10
2023-02-06T00:14:05.169Z,7.22
2023-02-06T00:16:34.594Z,6.78
2023-02-06T00:19:02.688Z,6.88
2023-02-06T00:21:30.752Z,6.68
2023-02-06T00:24:00.764Z,7.13
2023-02-06T00:26:28.166Z,7.25
2023-02-06T00:28:55.104Z,7.55
2023-02-06T00:31:22.242Z,7.78
2023-02-06T00:33:49.440Z,7.43
2023-02-06T00:36:16.526Z,7.78
2023-02-06T00:38:43.682Z,7.45
2023-02-06T00:41:10.670Z,8.57
2023-02-06T00:43:37.652Z,7.80
2023-02-06T00:46:04.911Z,8.00
2023-02-06T00:48:31.876Z,7.95
2023-02-06T00:50:58.742Z,6.90
2023-02-06T00:53:25.659Z,7.80
2023-02-06T00:55:52.686Z,7.88
2023-02-06T00:58:22.024Z,6.57
2023-02-06T01:00:48.961Z,7.40
2023-02-06T01:03:15.897Z,7.50
2023-02-06T01:05:43.053Z,7.57
2023-02-06T01:08:11.384Z,7.10
2023-02-06T01:10:42.471Z,7.53
2023-02-06T01:13:10.474Z,6.28
2023-02-06T01:15:38.599Z,7.63
2023-02-06T01:18:05.785Z,7.40
2023-02-06T01:20:34.139Z,6.72
2023-02-06T01:23:01.093Z,6.50
2023-02-06T01:25:28.831Z,7.38
2023-02-06T01:27:55.805Z,6.50
2023-02-06T01:30:23.743Z,6.68
2023-02-06T01:32:50.707Z,6.80
2023-02-06T01:35:17.840Z,7.05
2023-02-06T01:37:44.697Z,6.25
2023-02-06T01:40:16.190Z,6.55
2023-02-06T01:42:43.901Z,6.00
2023-02-06T01:45:26.024Z,7.13
2023-02-06T01:48:05.119Z,7.20
2023-02-06T01:50:35.978Z,7.50
2023-02-06T01:53:06.274Z,7.25
2023-02-06T01:55:37.745Z,7.30
2023-02-06T01:58:06.093Z,6.15
2023-02-06T02:00:33.277Z,6.30
2023-02-06T02:03:01.637Z,6.70
2023-02-06T02:05:33.105Z,6.90
2023-02-06T02:08:14.863Z,6.70
2023-02-06T02:10:42.205Z,8.27
2023-02-06T02:13:09.713Z,8.02
2023-02-06T02:15:52.135Z,7.93
2023-02-06T02:18:49.211Z,6.95
2023-02-06T02:22:00.446Z,6.47
2023-02-06T02:25:07.647Z,7.25
2023-02-06T02:28:18.309Z,6.93
2023-02-06T02:31:03.011Z,5.88
2023-02-06T02:33:51.524Z,7.45
2023-02-06T02:36:36.108Z,6.55
2023-02-06T02:39:27.863Z,7.50
2023-02-06T02:42:33.831Z,6.60
2023-02-06T02:45:16.890Z,7.20
2023-02-06T02:47:58.747Z,7.10
2023-02-06T02:50:27.358Z,7.05
2023-02-06T02:52:54.600Z,7.40
2023-02-06T02:55:23.962Z,6.50
2023-02-06T02:58:05.832Z,6.53
2023-02-06T03:00:47.434Z,6.75
2023-02-06T03:03:21.967Z,6.65
2023-02-06T03:06:26.848Z,6.22
2023-02-06T03:09:46.025Z,5.85
2023-02-06T03:12:24.687Z,5.82
2023-02-06T03:15:31.287Z,5.78
2023-02-06T03:18:40.204Z,6.57
2023-02-06T03:21:14.161Z,5.40
2023-02-06T03:23:46.035Z,6.18
2023-02-06T03:26:19.154Z,5.20
2023-02-06T03:29:02.222Z,5.80
2023-02-06T03:31:38.974Z,5.85
2023-02-06T03:34:35.185Z,5.85
2023-02-06T03:37:02.209Z,5.72
2023-02-06T03:39:29.850Z,5.60
2023-02-06T03:41:59.818Z,5.70
2023-02-06T03:44:33.444Z,6.05
2023-02-06T03:47:03.173Z,5.68
2023-02-06T03:49:33.416Z,5.95
2023-02-06T03:52:10.420Z,5.78
2023-02-06T03:54:44.600Z,5.15
2023-02-06T03:57:19.446Z,5.70
2023-02-06T03:59:47.406Z,6.05
2023-02-06T04:02:17.495Z,6.28
2023-02-06T04:04:46.066Z,6.85
2023-02-06T04:07:23.517Z,6.35
2023-02-06T04:09:51.342Z,6.35
2023-02-06T04:12:19.109Z,6.35
2023-02-06T04:14:46.268Z,6.53
2023-02-06T04:17:18.765Z,6.63
2023-02-06T04:19:51.074Z,5.97
2023-02-06T04:22:17.988Z,5.97
2023-02-06T04:24:45.058Z,5.78
2023-02-06T04:27:14.948Z,6.00
2023-02-06T04:29:41.942Z,7.18
2023-02-06T04:32:08.879Z,5.47
2023-02-06T04:34:38.098Z,6.68
2023-02-06T04:37:06.392Z,6.60
2023-02-06T04:39:34.186Z,7.18
2023-02-06T04:42:02.508Z,6.55
2023-02-06T04:44:29.960Z,6.93
2023-02-06T04:46:57.260Z,9.30
2023-02-06T04:49:24.225Z,7.55
2023-02-06T04:51:51.230Z,7.50
2023-02-06T04:54:18.343Z,6.95
2023-02-06T04:56:46.150Z,5.97
2023-02-06T04:59:13.637Z,6.88
2023-02-06T05:01:40.805Z,6.47
2023-02-06T05:04:08.189Z,6.38
2023-02-06T05:06:36.313Z,6.80
2023-02-06T05:09:05.150Z,7.03
2023-02-06T05:11:32.040Z,7.30
2023-02-06T05:13:58.939Z,7.03
2023-02-06T05:16:25.854Z,6.95
2023-02-06T05:18:56.128Z,7.70
2023-02-06T05:21:24.802Z,7.20
2023-02-06T05:23:51.937Z,7.18
2023-02-06T05:26:19.364Z,7.75
2023-02-06T05:28:46.345Z,7.65
2023-02-06T05:31:19.646Z,7.03
2023-02-06T05:33:52.587Z,8.35
2023-02-06T05:36:21.717Z,8.45
2023-02-06T05:38:49.869Z,8.13
2023-02-06T05:41:17.375Z,8.05
2023-02-06T05:43:44.371Z,8.25
2023-02-06T05:46:12.952Z,7.95
2023-02-06T05:48:40.750Z,8.10
2023-02-06T05:51:08.085Z,8.85
2023-02-06T05:53:35.159Z,8.75
2023-02-06T05:56:02.142Z,8.95
2023-02-06T05:58:29.149Z,8.52
2023-02-06T06:00:56.118Z,8.93
2023-02-06T06:03:23.036Z,9.68
2023-02-06T06:05:50.523Z,8.57
2023-02-06T06:08:17.478Z,9.23
2023-02-06T06:10:44.473Z,9.07
2023-02-06T06:13:11.465Z,8.85
2023-02-06T06:15:38.640Z,8.23
2023-02-06T06:18:05.816Z,9.15
2023-02-06T06:20:32.712Z,9.20
2023-02-06T06:22:59.586Z,8.93
2023-02-06T06:25:26.661Z,9.45
2023-02-06T06:27:53.793Z,8.88
2023-02-06T06:30:20.712Z,9.85
2023-02-06T06:32:47.684Z,9.63
2023-02-06T06:35:14.625Z,8.95
2023-02-06T06:37:41.491Z,9.90
2023-02-06T06:40:09.460Z,9.50
2023-02-06T06:42:36.394Z,9.13
2023-02-06T06:45:04.196Z,10.35
2023-02-06T06:47:33.757Z,9.45
2023-02-06T06:50:00.724Z,9.90
2023-02-06T06:52:27.916Z,10.02
2023-02-06T06:54:55.325Z,9.95
2023-02-06T06:57:23.426Z,10.13
2023-02-06T06:59:55.387Z,10.13
2023-02-06T07:02:29.376Z,9.43
2023-02-06T07:04:57.231Z,12.02
2023-02-06T07:07:27.230Z,10.70
2023-02-06T07:10:12.584Z,9.93
2023-02-06T07:12:44.206Z,9.07
2023-02-06T07:15:11.509Z,10.45
2023-02-06T07:17:39.408Z,8.77
2023-02-06T07:20:07.302Z,9.30
2023-02-06T07:22:34.210Z,9.70
2023-02-06T07:25:02.833Z,9.77
2023-02-06T07:27:29.878Z,9.85
2023-02-06T07:29:56.973Z,9.52
2023-02-06T07:32:24.049Z,10.70
2023-02-06T07:34:51.249Z,10.32
2023-02-06T07:37:19.310Z,11.02
2023-02-06T07:39:51.034Z,11.25
2023-02-06T07:42:18.835Z,9.07
2023-02-06T07:44:53.888Z,8.30
2023-02-06T07:47:20.844Z,9.45
2023-02-06T07:49:50.377Z,10.15
2023-02-06T07:52:17.428Z,11.35
2023-02-06T07:54:44.461Z,10.38
2023-02-06T08:00:15.130Z,10.38
2023-02-06T08:02:46.236Z,10.07
2023-02-06T08:05:13.569Z,10.77
2023-02-06T08:07:41.293Z,9.73
2023-02-06T08:10:08.885Z,11.00
2023-02-06T08:12:36.131Z,10.98
2023-02-06T08:15:03.835Z,11.25
2023-02-06T08:17:30.827Z,10.85
2023-02-06T08:19:57.842Z,11.00
2023-02-06T08:22:24.684Z,10.27
2023-02-06T08:24:51.900Z,10.75
2023-02-06T08:27:18.935Z,10.23
2023-02-06T08:30:02.280Z,11.30
2023-02-06T08:32:35.857Z,12.75
2023-02-06T08:35:02.873Z,10.55
2023-02-06T08:37:32.246Z,10.70
2023-02-06T08:39:59.206Z,10.40
2023-02-06T08:42:26.111Z,11.63
2023-02-06T08:44:53.732Z,12.02
2023-02-06T08:47:25.288Z,11.60
2023-02-06T08:49:52.287Z,10.77
2023-02-06T08:52:19.204Z,9.90
2023-02-06T08:54:46.146Z,12.38
2023-02-06T08:57:13.110Z,11.82
2023-02-06T08:59:41.595Z,10.90
2023-02-06T09:05:25.082Z,10.95
2023-02-06T09:08:01.355Z,11.77
2023-02-06T09:10:28.532Z,13.00
2023-02-06T09:12:56.270Z,12.02
2023-02-06T09:15:23.314Z,11.20
2023-02-06T09:17:50.264Z,11.93
2023-02-06T09:20:20.771Z,12.48
2023-02-06T09:22:52.450Z,13.00
2023-02-06T09:26:03.175Z,12.07
2023-02-06T09:28:31.579Z,13.00
2023-02-06T09:30:58.895Z,13.75
2023-02-06T09:33:26.015Z,13.00
2023-02-06T09:36:16.142Z,13.23
2023-02-06T09:38:47.312Z,13.10
2023-02-06T09:41:36.945Z,13.35
2023-02-06T09:44:28.776Z,13.70
2023-02-06T09:47:05.090Z,14.45
2023-02-06T09:49:34.558Z,12.40
2023-02-06T09:52:52.295Z,13.20
2023-02-06T09:55:24.983Z,13.93
2023-02-06T09:58:03.849Z,13.23
2023-02-06T10:01:00.490Z,11.80
2023-02-06T10:04:20.810Z,12.27
2023-02-06T10:07:26.224Z,13.65
2023-02-06T10:13:39.065Z,12.85
2023-02-06T10:17:31.032Z,13.30
2023-02-06T10:24:16.952Z,12.85
2023-02-06T10:28:03.075Z,13.02
2023-02-06T10:31:14.070Z,11.82
2023-02-06T10:34:35.024Z,13.02
2023-02-06T10:37:15.399Z,11.65
2023-02-06T10:39:58.647Z,13.02
2023-02-06T10:43:06.083Z,12.27
2023-02-06T10:45:33.693Z,12.55
2023-02-06T10:48:31.779Z,13.30
2023-02-06T10:51:13.392Z,11.52
2023-02-06T10:53:54.315Z,12.88
2023-02-06T10:56:28.643Z,12.02
2023-02-06T10:59:05.139Z,11.80
2023-02-06T11:01:39.068Z,13.25
2023-02-06T11:04:15.123Z,13.07
2023-02-06T11:06:43.148Z,13.20
2023-02-06T11:09:10.635Z,13.88
2023-02-06T11:12:00.846Z,15.73
2023-02-06T11:14:38.828Z,13.77
2023-02-06T11:17:08.783Z,14.93
2023-02-06T11:19:44.456Z,15.20
2023-02-06T11:22:16.154Z,16.10
2023-02-06T11:25:18.374Z,15.18
2023-02-06T11:27:49.087Z,15.90
2023-02-06T11:30:29.759Z,13.85
2023-02-06T11:33:43.192Z,15.38
2023-02-06T11:36:30.661Z,15.32
2023-02-06T11:39:30.487Z,15.02
2023-02-06T11:42:41.268Z,17.17
2023-02-06T11:45:32.012Z,15.38
2023-02-06T11:48:33.039Z,15.43
2023-02-06T11:51:00.760Z,15.68
2023-02-06T11:57:15.741Z,16.17
2023-02-06T12:00:02.051Z,16.63
2023-02-06T12:02:37.438Z,16.70
2023-02-06T12:09:12.501Z,14.32
2023-02-06T12:12:03.590Z,14.98
2023-02-06T12:14:54.634Z,14.65
2023-02-06T12:17:51.350Z,15.60
2023-02-06T12:20:35.053Z,15.40
2023-02-06T12:23:30.029Z,15.50
2023-02-06T12:26:03.785Z,14.85
2023-02-06T12:28:57.313Z,15.02
2023-02-06T12:31:47.664Z,12.80
2023-02-06T12:34:24.732Z,14.30
2023-02-06T12:37:15.067Z,14.05
2023-02-06T12:39:45.498Z,14.23
2023-02-06T12:42:17.947Z,14.10
2023-02-06T12:44:57.687Z,14.65
2023-02-06T12:47:39.958Z,13.68
2023-02-06T12:50:26.654Z,13.68
2023-02-06T12:54:21.381Z,12.13
2023-02-06T12:56:56.536Z,11.38
2023-02-06T13:04:37.609Z,11.88
2023-02-06T13:10:06.680Z,13.15
2023-02-06T13:12:38.262Z,11.60
2023-02-06T13:15:22.261Z,13.57
2023-02-06T13:18:02.250Z,15.00
2023-02-06T13:21:18.051Z,15.95
2023-02-06T13:24:03.583Z,15.25
2023-02-06T13:26:51.626Z,15.65
2023-02-06T13:29:39.604Z,15.45
2023-02-06T13:32:15.713Z,15.23
2023-02-06T13:34:48.663Z,15.20
2023-02-06T13:37:39.568Z,13.20
2023-02-06T13:40:39.254Z,14.52
2023-02-06T13:43:26.238Z,15.43
2023-02-06T13:46:01.768Z,14.43
2023-02-06T13:49:15.393Z,15.23
2023-02-06T13:51:58.436Z,14.48
2023-02-06T13:54:59.727Z,13.98
2023-02-06T13:57:58.270Z,13.00
2023-02-06T14:00:30.846Z,11.65
2023-02-06T14:03:13.729Z,11.32
2023-02-06T14:06:34.425Z,10.90
2023-02-06T14:09:30.595Z,10.93
2023-02-06T14:12:38.742Z,9.80
2023-02-06T14:15:41.232Z,8.57
2023-02-06T14:18:48.978Z,6.38
2023-02-06T14:21:24.991Z,6.03
2023-02-06T14:24:38.558Z,6.13
2023-02-06T14:27:30.423Z,6.85
2023-02-06T14:30:31.767Z,5.47
2023-02-06T14:33:44.748Z,5.35
2023-02-06T14:36:47.333Z,5.53
2023-02-06T14:39:53.466Z,5.65
2023-02-06T14:45:03.179Z,4.55
2023-02-06T14:47:44.896Z,5.00
2023-02-06T14:50:35.517Z,4.72
2023-02-06T14:53:34.490Z,4.78
2023-02-06T14:56:27.013Z,4.20
2023-02-06T14:58:57.251Z,4.43
2023-02-06T15:01:32.622Z,3.80
2023-02-06T15:04:26.319Z,4.50
2023-02-06T15:07:03.252Z,3.97
2023-02-06T15:09:38.965Z,3.85
2023-02-06T15:12:24.316Z,4.05
2023-02-06T15:15:04.511Z,3.90
2023-02-06T15:17:35.343Z,4.40
2023-02-06T15:20:20.776Z,4.10
2023-02-06T15:22:47.985Z,4.30
2023-02-06T15:25:49.896Z,4.38
2023-02-06T15:28:21.059Z,4.90
2023-02-06T15:30:55.375Z,4.63
2023-02-06T15:33:27.993Z,4.72
2023-02-06T15:35:58.462Z,5.70
2023-02-06T15:38:28.647Z,4.82
2023-02-06T15:41:04.478Z,5.05
2023-02-06T15:43:33.118Z,5.72
2023-02-06T15:46:04.473Z,5.10
2023-02-06T15:49:45.765Z,5.40
2023-02-06T15:52:42.899Z,7.20
2023-02-06T15:55:32.919Z,6.30
2023-02-06T15:58:03.623Z,6.07
2023-02-06T16:00:35.602Z,5.88
2023-02-06T16:03:20.191Z,6.18
2023-02-06T16:05:47.618Z,5.97
2023-02-06T16:08:25.560Z,6.07
2023-02-06T16:10:59.887Z,7.60
2023-02-06T16:13:30.581Z,6.30
2023-02-06T16:16:16.510Z,6.82
2023-02-06T16:18:43.616Z,6.22
2023-02-06T16:21:17.255Z,6.80
2023-02-06T16:24:03.111Z,6.00
2023-02-06T16:26:48.663Z,6.45
2023-02-06T16:29:31.497Z,7.00
2023-02-06T16:32:15.809Z,6.45
2023-02-06T16:34:45.977Z,7.13
2023-02-06T16:37:23.853Z,6.43
2023-02-06T16:39:51.520Z,7.68
2023-02-06T16:42:23.120Z,6.18
2023-02-06T16:45:00.931Z,7.38
2023-02-06T16:47:28.547Z,8.77
2023-02-06T16:49:55.877Z,8.30
2023-02-06T16:52:29.228Z,7.05
2023-02-06T16:55:01.419Z,7.57
2023-02-06T16:57:36.374Z,7.68
2023-02-06T17:00:16.051Z,7.40
2023-02-06T17:02:55.528Z,8.30
2023-02-06T17:05:37.182Z,6.93
2023-02-06T17:08:31.432Z,7.60
2023-02-06T17:11:13.763Z,7.93
2023-02-06T17:14:49.031Z,7.93
2023-02-06T17:17:23.101Z,7.55
2023-02-06T17:19:52.330Z,8.43
2023-02-06T17:22:41.744Z,9.13
2023-02-06T17:25:20.533Z,8.98
2023-02-06T17:30:49.196Z,8.18
2023-02-06T17:33:17.872Z,7.88
2023-02-06T17:35:47.943Z,9.60
2023-02-06T17:38:15.107Z,8.98
2023-02-06T17:40:42.327Z,9.00
2023-02-06T17:43:09.661Z,9.10
2023-02-06T17:45:39.631Z,9.50
2023-02-06T17:48:08.450Z,9.45
2023-02-06T17:50:37.488Z,8.88
2023-02-06T17:53:14.091Z,9.15
2023-02-06T17:55:41.681Z,7.97
2023-02-06T17:58:09.720Z,9.10
2023-02-06T18:00:43.436Z,8.75
2023-02-06T18:03:17.582Z,8.90
2023-02-06T18:05:45.055Z,9.95
2023-02-06T18:08:12.194Z,9.63
2023-02-06T18:10:40.491Z,8.35
2023-02-06T18:13:08.962Z,8.13
2023-02-06T18:15:37.621Z,8.00
2023-02-06T18:18:04.927Z,8.35
2023-02-06T18:20:35.917Z,8.63
2023-02-06T18:23:07.181Z,8.65
2023-02-06T18:25:43.486Z,8.30
2023-02-06T18:28:48.284Z,9.57
2023-02-06T18:32:29.016Z,8.85
2023-02-06T18:35:20.753Z,8.80
2023-02-06T18:38:09.446Z,9.13
2023-02-06T18:40:41.747Z,9.18
2023-02-06T18:43:08.843Z,9.38
2023-02-06T18:45:38.852Z,9.13
2023-02-06T18:48:09.371Z,10.02
2023-02-06T18:50:42.072Z,10.68
2023-02-06T18:53:09.619Z,10.80
2023-02-06T18:55:37.476Z,9.40
2023-02-06T18:58:08.191Z,10.63
2023-02-06T19:00:37.732Z,10.68
2023-02-06T19:03:05.104Z,9.85
2023-02-06T19:05:35.886Z,8.25
2023-02-06T19:08:02.988Z,9.30
2023-02-06T19:10:29.982Z,8.38
2023-02-06T19:12:56.939Z,9.25
2023-02-06T19:15:23.979Z,9.02
2023-02-06T19:17:51.645Z,7.95
2023-02-06T19:20:19.868Z,8.60
2023-02-06T19:22:47.024Z,8.82
2023-02-06T19:25:14.788Z,9.23
2023-02-06T19:27:42.334Z,10.80
2023-02-06T19:30:10.529Z,10.50
2023-02-06T19:32:38.040Z,10.30
2023-02-06T19:35:06.147Z,10.45
2023-02-06T19:37:33.350Z,11.30
2023-02-06T19:40:00.371Z,11.43
2023-02-06T19:42:27.606Z,10.55
2023-02-06T19:44:55.100Z,11.90
2023-02-06T19:47:22.810Z,11.23
2023-02-06T19:49:52.518Z,12.77
2023-02-06T19:52:20.558Z,12.90
2023-02-06T19:54:48.056Z,11.45
2023-02-06T19:57:16.033Z,12.70
2023-02-06T19:59:43.297Z,11.23
2023-02-06T20:02:16.579Z,12.73
2023-02-06T20:04:45.308Z,12.93
2023-02-06T20:07:12.533Z,12.68
2023-02-06T20:09:41.982Z,14.77
2023-02-06T20:12:12.555Z,12.30
2023-02-06T20:14:40.121Z,13.75
2023-02-06T20:17:07.349Z,13.57
2023-02-06T20:19:35.238Z,15.15
2023-02-06T20:22:03.425Z,13.93
2023-02-06T20:24:32.791Z,13.85
2023-02-06T20:27:07.253Z,13.65
2023-02-06T20:29:41.573Z,14.18
2023-02-06T20:32:09.413Z,12.87
2023-02-06T20:34:36.596Z,12.07
2023-02-06T20:37:04.579Z,14.05
2023-02-06T20:39:32.065Z,13.77
2023-02-06T20:41:59.366Z,12.40
2023-02-06T20:44:26.507Z,14.35
2023-02-06T20:46:53.752Z,13.00
2023-02-06T20:49:26.223Z,12.98
2023-02-06T20:51:54.052Z,13.65
2023-02-06T20:54:22.109Z,13.38
2023-02-06T20:56:49.802Z,13.02
2023-02-06T20:59:19.746Z,12.65
2023-02-06T21:01:46.730Z,13.02
2023-02-06T21:04:15.748Z,12.23
2023-02-06T21:06:43.896Z,12.13
2023-02-06T21:09:12.231Z,12.13
2023-02-06T21:11:45.007Z,11.65
2023-02-06T21:14:13.929Z,13.23
2023-02-06T21:16:43.610Z,12.90
2023-02-06T21:19:14.083Z,11.40
2023-02-06T21:21:42.200Z,12.20
2023-02-06T21:24:10.129Z,11.30
2023-02-06T21:26:38.708Z,12.18
2023-02-06T21:29:07.605Z,11.93
2023-02-06T21:31:38.381Z,12.75
2023-02-06T21:34:19.974Z,14.30
2023-02-06T21:36:48.243Z,13.35
2023-02-06T21:39:20.113Z,12.68
2023-02-06T21:41:51.482Z,13.27
2023-02-06T21:44:18.516Z,12.70
2023-02-06T21:46:45.430Z,13.35
2023-02-06T21:49:13.417Z,12.23
2023-02-06T21:51:40.316Z,13.13
2023-02-06T21:54:08.790Z,13.80
2023-02-06T21:56:38.249Z,14.80
2023-02-06T21:59:07.112Z,15.27
2023-02-06T22:01:34.388Z,13.73
2023-02-06T22:04:03.173Z,14.48
2023-02-06T22:06:30.612Z,14.50
2023-02-06T22:09:05.034Z,15.02
2023-02-06T22:11:34.220Z,14.82
2023-02-06T22:14:14.546Z,15.20
2023-02-06T22:16:42.711Z,13.82
2023-02-06T22:19:10.739Z,15.25
2023-02-06T22:21:37.964Z,15.90
2023-02-06T22:24:08.155Z,14.93
2023-02-06T22:26:39.000Z,14.77
2023-02-06T22:29:10.334Z,12.93
2023-02-06T22:31:40.266Z,13.55
2023-02-06T22:34:11.741Z,14.05
2023-02-06T22:36:39.591Z,12.73
2023-02-06T22:39:09.963Z,15.38
2023-02-06T22:41:41.710Z,13.95
2023-02-06T22:44:11.521Z,14.35
2023-02-06T22:46:40.258Z,13.93
2023-02-06T22:49:08.857Z,14.32
2023-02-06T22:51:38.041Z,14.40
2023-02-06T22:54:06.246Z,14.60
2023-02-06T22:56:43.640Z,14.75
2023-02-06T22:59:19.951Z,15.25
2023-02-06T23:01:53.606Z,11.77
2023-02-06T23:04:28.157Z,12.25
2023-02-06T23:06:56.164Z,12.20
2023-02-06T23:09:37.640Z,11.98
2023-02-06T23:12:05.459Z,10.93
2023-02-06T23:14:33.572Z,11.63
2023-02-06T23:17:02.291Z,12.65
2023-02-06T23:19:29.700Z,15.07
2023-02-06T23:21:56.940Z,15.57
2023-02-06T23:24:24.003Z,14.07
2023-02-06T23:26:53.215Z,14.63
2023-02-06T23:29:22.584Z,14.02
2023-02-06T23:31:50.548Z,15.20
2023-02-06T23:34:18.907Z,14.00
2023-02-06T23:36:46.692Z,14.20
2023-02-06T23:39:13.713Z,14.38
2023-02-06T23:41:41.333Z,13.55
2023-02-06T23:44:10.234Z,15.23
2023-02-06T23:46:39.743Z,14.80
2023-02-06T23:49:07.635Z,15.43
2023-02-06T23:51:36.463Z,15.35
2023-02-06T23:54:04.964Z,16.45
2023-02-06T23:56:32.852Z,15.63
2023-02-06T23:59:02.200Z,16.58
